createdAt,value
2019-05-13T00:00:03.703Z,9.1
2019-05-13T00:05:03.826Z,9
2019-05-13T00:10:05.510Z,8.8
2019-05-13T00:15:03.689Z,8.8
2019-05-13T00:20:03.461Z,8.8
2019-05-13T00:25:03.948Z,8.7
2019-05-13T00:30:04.103Z,8.7
2019-05-13T00:35:03.912Z,8.7
2019-05-13T00:40:03.756Z,8.6
2019-05-13T00:45:03.984Z,8.6
2019-05-13T00:50:03.618Z,8.5
2019-05-13T00:55:04.200Z,8.5
2019-05-13T01:00:03.474Z,8.3
2019-05-13T01:05:01.312Z,8.3
2019-05-13T01:10:04.186Z,8.2
2019-05-13T01:15:03.906Z,8.2
2019-05-13T01:20:04.089Z,8.1
2019-05-13T01:25:03.893Z,8.1
2019-05-13T01:30:05.830Z,8
2019-05-13T01:35:04.404Z,8
2019-05-13T01:40:05.043Z,8
2019-05-13T01:45:04.471Z,7.9
2019-05-13T01:50:03.398Z,7.8
2019-05-13T01:55:03.975Z,7.7
2019-05-13T02:00:01.540Z,7.7
2019-05-13T02:05:03.906Z,7.7
2019-05-13T02:10:09.426Z,7.6
2019-05-13T02:15:04.362Z,7.6
2019-05-13T02:20:03.843Z,7.6
2019-05-13T02:25:01.374Z,7.5
2019-05-13T02:30:05.438Z,7.4
2019-05-13T02:35:02.594Z,7.3
2019-05-13T02:40:03.423Z,7.3
2019-05-13T02:45:03.637Z,7.2
2019-05-13T02:50:05.792Z,7.1
2019-05-13T02:55:03.877Z,7
2019-05-13T03:00:04.022Z,7
2019-05-13T03:05:03.068Z,6.9
2019-05-13T03:10:04.048Z,6.9
2019-05-13T03:15:02.876Z,6.8
2019-05-13T03:20:03.975Z,6.7
2019-05-13T03:25:03.260Z,6.6
2019-05-13T03:30:04.159Z,6.5
2019-05-13T03:35:06.990Z,6.5
2019-05-13T03:40:03.259Z,6.5
2019-05-13T03:45:03.142Z,6.4
2019-05-13T03:50:14.517Z,6.2
2019-05-13T03:55:03.256Z,6.2
2019-05-13T04:00:03.424Z,6.1
2019-05-13T04:05:18.444Z,6.1
2019-05-13T04:10:03.248Z,6.1
2019-05-13T04:15:03.711Z,6
2019-05-13T04:20:02.883Z,6
2019-05-13T04:25:12.594Z,5.9
2019-05-13T04:30:03.376Z,5.9
2019-05-13T04:35:03.907Z,5.9
2019-05-13T04:40:03.647Z,6
2019-05-13T04:45:19.297Z,5.9
2019-05-13T04:50:02.986Z,6
2019-05-13T04:55:03.285Z,6
2019-05-13T05:00:04.021Z,6
2019-05-13T05:05:06.833Z,6.2
2019-05-13T05:10:17.219Z,6.2
2019-05-13T05:15:04.716Z,6.3
2019-05-13T05:20:03.484Z,6.3
2019-05-13T05:25:02.624Z,6.5
2019-05-13T05:30:02.144Z,6.5
2019-05-13T05:35:03.282Z,6.6
2019-05-13T05:40:02.334Z,6.7
2019-05-13T05:45:02.716Z,6.7
2019-05-13T05:50:03.130Z,6.7
2019-05-13T05:55:02.457Z,6.8
2019-05-13T06:00:03.192Z,6.9
2019-05-13T06:05:02.615Z,6.9
2019-05-13T06:10:02.958Z,7
2019-05-13T06:15:02.581Z,7
2019-05-13T06:20:03.887Z,7.1
2019-05-13T06:25:01.795Z,7.2
2019-05-13T06:30:03.262Z,7.3
2019-05-13T06:35:02.523Z,7.4
2019-05-13T06:40:02.176Z,7.5
2019-05-13T06:45:02.371Z,7.6
2019-05-13T06:50:03.589Z,7.7
2019-05-13T06:55:02.842Z,7.8
2019-05-13T07:00:01.923Z,7.9
2019-05-13T07:05:04.797Z,8.2
2019-05-13T07:10:02.436Z,8.2
2019-05-13T07:15:02.676Z,8.3
2019-05-13T07:20:02.404Z,8.4
2019-05-13T07:25:05.042Z,8.7
2019-05-13T07:30:02.299Z,8.7
2019-05-13T07:35:05.815Z,9
2019-05-13T07:40:02.497Z,8.9
2019-05-13T07:45:02.742Z,9.1
2019-05-13T07:50:02.589Z,9.1
2019-05-13T07:55:02.481Z,9.3
2019-05-13T08:00:02.300Z,9.5
2019-05-13T08:05:02.486Z,9.7
2019-05-13T08:10:03.451Z,9.8
2019-05-13T08:15:03.093Z,9.9
2019-05-13T08:20:02.815Z,10
2019-05-13T08:25:03.197Z,10.1
2019-05-13T08:30:01.758Z,10.3
2019-05-13T08:35:12.740Z,10.5
2019-05-13T08:40:01.924Z,10.5
2019-05-13T08:45:03.339Z,10.6
2019-05-13T08:50:04.302Z,10.8
2019-05-13T08:55:02.626Z,10.9
2019-05-13T09:00:04.608Z,11.1
2019-05-13T09:05:02.599Z,11.1
2019-05-13T09:10:02.175Z,11.2
2019-05-13T09:15:03.201Z,11.3
2019-05-13T09:20:02.881Z,11.4
2019-05-13T09:25:02.204Z,11.4
2019-05-13T09:30:07.079Z,11.6
2019-05-13T09:35:05.906Z,11.7
2019-05-13T09:40:02.463Z,11.7
2019-05-13T09:45:02.274Z,11.8
2019-05-13T09:50:04.557Z,12
2019-05-13T09:55:03.019Z,12.2
2019-05-13T10:00:03.477Z,12.3
2019-05-13T10:05:02.468Z,12.4
2019-05-13T10:10:01.974Z,12.5
2019-05-13T10:15:05.193Z,12.5
2019-05-13T10:20:01.978Z,12.5
2019-05-13T10:25:02.379Z,12.6
2019-05-13T10:30:02.346Z,12.8
2019-05-13T10:35:03.181Z,12.8
2019-05-13T10:40:02.716Z,12.8
2019-05-13T10:45:02.639Z,12.9
2019-05-13T10:50:02.743Z,13.1
2019-05-13T10:55:02.448Z,13.2
2019-05-13T11:00:03.234Z,13.2
2019-05-13T11:05:03.289Z,13.2
2019-05-13T11:10:04.390Z,13
2019-05-13T11:15:02.475Z,13
2019-05-13T11:20:03.370Z,13.1
2019-05-13T11:25:02.614Z,13
2019-05-13T11:30:18.394Z,13.4
2019-05-13T11:35:02.354Z,13.4
2019-05-13T11:40:02.717Z,13.4
2019-05-13T11:45:02.571Z,13.5
2019-05-13T11:50:04.693Z,14.2
2019-05-13T11:55:02.494Z,14.2
2019-05-13T12:00:02.827Z,14.2
2019-05-13T12:05:03.669Z,14.1
2019-05-13T12:10:02.903Z,14.1
2019-05-13T12:15:26.770Z,14.2
2019-05-13T12:20:03.364Z,14.4
2019-05-13T12:25:02.317Z,14.5
2019-05-13T12:30:02.979Z,14.5
2019-05-13T12:35:03.451Z,14.6
2019-05-13T12:40:03.137Z,14.8
2019-05-13T12:45:15.161Z,15
2019-05-13T12:50:03.080Z,15
2019-05-13T12:55:03.547Z,15.1
2019-05-13T13:00:02.493Z,15
2019-05-13T13:05:13.142Z,14.9
2019-05-13T13:10:02.726Z,15.1
2019-05-13T13:15:12.161Z,15.2
2019-05-13T13:20:09.573Z,15.2
2019-05-13T13:25:04.801Z,15.2
2019-05-13T13:30:08.207Z,15
2019-05-13T13:35:03.628Z,14.9
2019-05-13T13:40:03.285Z,15.6
2019-05-13T13:45:05.940Z,15.9
2019-05-13T13:50:01.536Z,15.9
2019-05-13T13:55:07.458Z,15.9
2019-05-13T14:00:22.264Z,15.9
2019-05-13T14:05:15.998Z,15.5
2019-05-13T14:10:06.530Z,15.5
2019-05-13T14:15:02.084Z,15.3
2019-05-13T14:20:02.342Z,15.2
2019-05-13T14:25:01.728Z,16
2019-05-13T14:30:02.318Z,17.8
2019-05-13T14:35:02.428Z,19.1
2019-05-13T14:40:02.686Z,19.3
2019-05-13T14:45:02.206Z,19.9
2019-05-13T14:50:02.967Z,19.1
2019-05-13T14:55:04.321Z,19.3
2019-05-13T15:00:03.097Z,19.3
2019-05-13T15:05:02.710Z,19.5
2019-05-13T15:10:02.903Z,19.6
2019-05-13T15:15:01.888Z,18.9
2019-05-13T15:20:03.248Z,18.4
2019-05-13T15:25:02.689Z,18.2
2019-05-13T15:30:16.500Z,17.9
2019-05-13T15:35:02.464Z,17.7
2019-05-13T15:40:02.367Z,17.4
2019-05-13T15:45:02.451Z,17.3
2019-05-13T15:50:02.371Z,17.4
2019-05-13T15:55:02.463Z,17.4
2019-05-13T16:00:01.991Z,17.4
2019-05-13T16:05:04.754Z,17.2
2019-05-13T16:10:04.264Z,16.9
2019-05-13T16:15:01.931Z,16.8
2019-05-13T16:20:02.278Z,16.7
2019-05-13T16:25:01.632Z,16.6
2019-05-13T16:30:02.594Z,16.4
2019-05-13T16:35:02.531Z,16.7
2019-05-13T16:40:02.433Z,16.7
2019-05-13T16:45:01.676Z,16.4
2019-05-13T16:50:02.887Z,16.2
2019-05-13T16:55:02.656Z,16.1
2019-05-13T17:00:02.388Z,15.9
2019-05-13T17:05:02.217Z,15.8
2019-05-13T17:10:03.657Z,15.7
2019-05-13T17:15:02.573Z,15.8
2019-05-13T17:20:02.488Z,15.9
2019-05-13T17:25:02.456Z,16
2019-05-13T17:30:02.271Z,16
2019-05-13T17:35:02.202Z,15.9
2019-05-13T17:40:02.528Z,15.8
2019-05-13T17:45:02.440Z,15.6
2019-05-13T17:50:05.789Z,15.3
2019-05-13T17:55:01.869Z,15.3
2019-05-13T18:00:03.253Z,15.3
2019-05-13T18:05:02.206Z,15.2
2019-05-13T18:10:11.839Z,14.9
2019-05-13T18:15:02.573Z,14.9
2019-05-13T18:20:02.436Z,14.7
2019-05-13T18:25:02.516Z,14.5
2019-05-13T18:30:02.424Z,14.3
2019-05-13T18:35:01.941Z,14.1
2019-05-13T18:40:03.245Z,13.9
2019-05-13T18:45:02.430Z,13.8
2019-05-13T18:50:03.246Z,13.6
2019-05-13T18:55:02.330Z,13.4
2019-05-13T19:00:02.170Z,13.2
2019-05-13T19:05:02.153Z,13.1
2019-05-13T19:10:11.327Z,12.7
2019-05-13T19:15:02.602Z,12.7
2019-05-13T19:20:01.955Z,12.6
2019-05-13T19:25:03.343Z,12.4
2019-05-13T19:30:01.947Z,12.3
2019-05-13T19:35:03.309Z,12.2
2019-05-13T19:40:01.936Z,12.1
2019-05-13T19:45:16.082Z,11.8
2019-05-13T19:50:02.554Z,11.8
2019-05-13T19:55:01.814Z,11.8
2019-05-13T20:00:02.402Z,11.8
2019-05-13T20:05:01.839Z,11.7
2019-05-13T20:10:02.979Z,11.7
2019-05-13T20:15:02.240Z,11.6
2019-05-13T20:20:02.166Z,11.5
2019-05-13T20:25:02.546Z,11.5
2019-05-13T20:30:01.759Z,11.4
2019-05-13T20:35:02.644Z,11.3
2019-05-13T20:40:02.451Z,11.3
2019-05-13T20:45:05.943Z,11.1
2019-05-13T20:50:02.519Z,11.1
2019-05-13T20:55:01.960Z,11
2019-05-13T21:00:02.525Z,10.9
2019-05-13T21:05:01.772Z,10.8
2019-05-13T21:10:02.482Z,10.7
2019-05-13T21:15:01.723Z,10.5
2019-05-13T21:20:17.884Z,10.4
2019-05-13T21:25:02.176Z,10.4
2019-05-13T21:30:03.181Z,10.4
2019-05-13T21:35:01.872Z,10.3
2019-05-13T21:40:02.966Z,10.2
2019-05-13T21:45:01.779Z,10
2019-05-13T21:50:02.391Z,9.9
2019-05-13T21:55:01.917Z,9.8
2019-05-13T22:00:02.460Z,9.8
2019-05-13T22:05:01.426Z,9.7
2019-05-13T22:10:02.632Z,9.7
2019-05-13T22:15:01.836Z,9.8
2019-05-13T22:20:01.808Z,9.8
2019-05-13T22:25:07.336Z,9.8
2019-05-13T22:30:01.539Z,9.8
2019-05-13T22:35:02.760Z,9.6
2019-05-13T22:40:04.073Z,9.5
2019-05-13T22:45:02.759Z,9.4
2019-05-13T22:50:02.383Z,9.4
2019-05-13T22:55:02.428Z,9.4
2019-05-13T23:00:02.420Z,9.3
2019-05-13T23:05:01.888Z,9.3
2019-05-13T23:10:03.391Z,9.3
2019-05-13T23:15:02.041Z,9.3
2019-05-13T23:20:13.455Z,9.2
2019-05-13T23:25:02.059Z,9.2
2019-05-13T23:30:01.648Z,9.1
2019-05-13T23:35:02.619Z,9
2019-05-13T23:40:02.100Z,8.9
2019-05-13T23:45:01.640Z,9
2019-05-13T23:50:02.566Z,8.9
2019-05-13T23:55:02.580Z,8.8
